createdAt,value
2022-08-23T00:01:35.323Z,2.80
2022-08-23T00:04:09.745Z,2.83
2022-08-23T00:06:42.798Z,3.00
2022-08-23T00:09:11.559Z,3.17
2022-08-23T00:11:43.407Z,2.53
2022-08-23T00:14:16.915Z,2.95
2022-08-23T00:16:46.775Z,3.10
2022-08-23T00:19:18.138Z,3.28
2022-08-23T00:21:49.071Z,3.20
2022-08-23T00:24:20.106Z,3.17
2022-08-23T00:27:05.070Z,3.13
2022-08-23T00:29:36.478Z,3.28
2022-08-23T00:32:07.539Z,3.10
2022-08-23T00:34:36.448Z,3.22
2022-08-23T00:37:08.720Z,3.20
2022-08-23T00:39:38.211Z,3.20
2022-08-23T00:42:26.668Z,2.97
2022-08-23T00:45:14.079Z,3.28
2022-08-23T00:47:45.012Z,3.10
2022-08-23T00:50:28.697Z,3.40
2022-08-23T00:53:07.708Z,3.13
2022-08-23T00:55:37.782Z,3.08
2022-08-23T00:58:06.154Z,3.50
2022-08-23T01:00:34.858Z,3.72
2022-08-23T01:03:07.065Z,3.10
2022-08-23T01:05:52.674Z,3.05
2022-08-23T01:08:25.831Z,3.25
2022-08-23T01:11:01.714Z,3.30
2022-08-23T01:13:43.023Z,3.33
2022-08-23T01:16:20.299Z,3.45
2022-08-23T01:18:50.608Z,3.28
2022-08-23T01:21:30.933Z,3.47
2022-08-23T01:24:04.348Z,3.90
2022-08-23T01:26:35.162Z,3.72
2022-08-23T01:29:07.241Z,3.58
2022-08-23T01:31:37.257Z,3.80
2022-08-23T01:34:09.555Z,3.60
2022-08-23T01:36:38.857Z,3.03
2022-08-23T01:39:08.928Z,3.03
2022-08-23T01:41:38.433Z,3.53
2022-08-23T01:44:07.493Z,3.42
2022-08-23T01:46:37.437Z,3.50
2022-08-23T01:49:08.486Z,3.47
2022-08-23T01:51:37.417Z,3.70
2022-08-23T01:54:07.692Z,2.90
2022-08-23T01:56:39.037Z,3.28
2022-08-23T01:59:08.812Z,3.33
2022-08-23T02:01:38.189Z,3.35
2022-08-23T02:04:07.517Z,3.42
2022-08-23T02:06:35.731Z,3.45
2022-08-23T02:09:05.847Z,3.90
2022-08-23T02:11:49.891Z,3.45
2022-08-23T02:14:22.032Z,3.28
2022-08-23T02:17:03.256Z,3.33
2022-08-23T02:19:33.198Z,3.30
2022-08-23T02:22:01.611Z,3.33
2022-08-23T02:24:31.022Z,3.30
2022-08-23T02:27:05.208Z,3.55
2022-08-23T02:29:38.330Z,3.35
2022-08-23T02:32:09.916Z,3.08
2022-08-23T02:34:38.458Z,3.28
2022-08-23T02:37:07.331Z,3.65
2022-08-23T02:39:35.780Z,3.47
2022-08-23T02:42:12.268Z,3.35
2022-08-23T02:44:40.543Z,3.78
2022-08-23T02:47:09.222Z,3.40
2022-08-23T02:49:37.801Z,3.47
2022-08-23T02:52:07.411Z,3.33
2022-08-23T02:54:36.374Z,3.83
2022-08-23T02:57:05.210Z,3.33
2022-08-23T02:59:35.329Z,3.67
2022-08-23T03:02:03.430Z,3.78
2022-08-23T03:04:32.090Z,3.40
2022-08-23T03:07:00.568Z,3.28
2022-08-23T03:09:29.373Z,6.38
2022-08-23T03:11:57.365Z,5.15
2022-08-23T03:14:27.410Z,4.80
2022-08-23T03:16:58.423Z,4.32
2022-08-23T03:19:27.874Z,3.95
2022-08-23T03:21:55.972Z,3.40
2022-08-23T03:24:24.119Z,3.83
2022-08-23T03:26:52.581Z,3.65
2022-08-23T03:29:20.675Z,3.50
2022-08-23T03:31:48.859Z,4.18
2022-08-23T03:34:18.469Z,3.45
2022-08-23T03:36:47.484Z,3.33
2022-08-23T03:39:16.215Z,4.07
2022-08-23T03:41:44.222Z,3.85
2022-08-23T03:44:12.752Z,3.80
2022-08-23T03:46:40.763Z,3.63
2022-08-23T03:49:09.098Z,3.70
2022-08-23T03:51:38.603Z,4.18
2022-08-23T03:54:07.047Z,3.60
2022-08-23T03:56:38.686Z,3.70
2022-08-23T03:59:11.866Z,3.17
2022-08-23T04:01:40.131Z,3.80
2022-08-23T04:04:08.313Z,3.40
2022-08-23T04:06:38.065Z,3.60
2022-08-23T04:09:06.501Z,3.95
2022-08-23T04:11:34.700Z,3.65
2022-08-23T04:14:02.960Z,3.90
2022-08-23T04:16:33.424Z,3.47
2022-08-23T04:19:01.644Z,3.63
2022-08-23T04:21:30.306Z,3.53
2022-08-23T04:23:59.934Z,3.92
2022-08-23T04:26:30.286Z,3.80
2022-08-23T04:28:58.682Z,3.80
2022-08-23T04:31:29.021Z,3.72
2022-08-23T04:34:03.930Z,3.97
2022-08-23T04:36:38.243Z,3.78
2022-08-23T04:39:08.576Z,3.40
2022-08-23T04:41:54.570Z,3.72
2022-08-23T04:44:23.331Z,3.45
2022-08-23T04:46:51.364Z,3.60
2022-08-23T04:49:24.458Z,3.25
2022-08-23T04:51:53.492Z,3.58
2022-08-23T04:54:23.674Z,3.70
2022-08-23T04:56:52.064Z,4.18
2022-08-23T04:59:20.368Z,3.45
2022-08-23T05:01:48.419Z,3.67
2022-08-23T05:04:16.651Z,4.10
2022-08-23T05:06:45.655Z,3.60
2022-08-23T05:09:19.869Z,3.70
2022-08-23T05:11:50.625Z,3.80
2022-08-23T05:14:19.338Z,4.15
2022-08-23T05:16:47.482Z,4.15
2022-08-23T05:19:15.521Z,4.85
2022-08-23T05:21:44.074Z,4.50
2022-08-23T05:24:13.778Z,4.32
2022-08-23T05:26:42.497Z,4.10
2022-08-23T05:29:12.294Z,4.53
2022-08-23T05:31:40.505Z,4.60
2022-08-23T05:34:08.812Z,4.13
2022-08-23T05:36:37.678Z,4.25
2022-08-23T05:39:06.307Z,4.25
2022-08-23T05:41:38.237Z,4.32
2022-08-23T05:44:06.871Z,4.20
2022-08-23T05:46:39.473Z,3.40
2022-08-23T05:49:11.559Z,4.00
2022-08-23T05:51:43.742Z,3.85
2022-08-23T05:54:14.112Z,3.95
2022-08-23T05:56:45.238Z,3.72
2022-08-23T05:59:19.478Z,3.78
2022-08-23T06:01:49.111Z,3.50
2022-08-23T06:04:19.098Z,4.00
2022-08-23T06:06:48.315Z,4.18
2022-08-23T06:09:19.322Z,3.78
2022-08-23T06:11:49.430Z,3.33
2022-08-23T06:14:18.026Z,3.78
2022-08-23T06:16:55.489Z,3.67
2022-08-23T06:19:24.885Z,3.38
2022-08-23T06:21:53.790Z,3.85
2022-08-23T06:24:23.219Z,3.80
2022-08-23T06:26:52.290Z,3.35
2022-08-23T06:29:21.521Z,3.17
2022-08-23T06:31:54.103Z,3.83
2022-08-23T06:34:29.314Z,3.80
2022-08-23T06:37:01.016Z,3.60
2022-08-23T06:39:36.785Z,3.83
2022-08-23T06:42:34.344Z,3.05
2022-08-23T06:44:57.341Z,3.08
2022-08-23T06:47:27.023Z,2.78
2022-08-23T06:49:57.720Z,3.30
2022-08-23T06:52:27.317Z,2.95
2022-08-23T06:54:55.797Z,3.03
2022-08-23T06:57:26.459Z,2.67
2022-08-23T06:59:55.003Z,2.70
2022-08-23T07:02:23.166Z,2.45
2022-08-23T07:04:54.219Z,2.50
2022-08-23T07:07:22.701Z,2.70
2022-08-23T07:09:50.970Z,2.67
2022-08-23T07:12:19.790Z,2.65
2022-08-23T07:14:48.134Z,2.65
2022-08-23T07:17:16.951Z,2.90
2022-08-23T07:19:45.450Z,3.20
2022-08-23T07:22:15.665Z,3.17
2022-08-23T07:24:44.003Z,2.90
2022-08-23T07:27:12.496Z,2.58
2022-08-23T07:29:41.406Z,2.88
2022-08-23T07:32:11.137Z,2.85
2022-08-23T07:34:39.256Z,2.58
2022-08-23T07:37:11.210Z,2.30
2022-08-23T07:39:45.974Z,2.50
2022-08-23T07:42:22.723Z,2.55
2022-08-23T07:44:51.835Z,2.38
2022-08-23T07:47:21.618Z,2.33
2022-08-23T07:49:49.995Z,2.65
2022-08-23T07:52:18.454Z,2.05
2022-08-23T07:54:48.266Z,2.15
2022-08-23T07:57:18.134Z,2.25
2022-08-23T07:59:46.784Z,2.17
2022-08-23T08:02:15.502Z,2.25
2022-08-23T08:04:43.996Z,2.50
2022-08-23T08:07:21.221Z,2.50
2022-08-23T08:09:50.984Z,2.67
2022-08-23T08:12:19.133Z,2.40
2022-08-23T08:14:48.710Z,2.35
2022-08-23T08:17:18.166Z,2.25
2022-08-23T08:19:47.012Z,2.58
2022-08-23T08:22:15.118Z,2.60
2022-08-23T08:24:43.535Z,2.42
2022-08-23T08:27:13.029Z,2.72
2022-08-23T08:29:41.978Z,2.42
2022-08-23T08:32:13.935Z,2.60
2022-08-23T08:34:43.095Z,2.42
2022-08-23T08:37:11.403Z,2.60
2022-08-23T08:39:45.456Z,2.33
2022-08-23T08:42:43.371Z,2.47
2022-08-23T08:45:17.501Z,2.40
2022-08-23T08:47:53.398Z,2.60
2022-08-23T08:50:28.431Z,2.58
2022-08-23T08:53:05.364Z,2.65
2022-08-23T08:55:39.634Z,2.30
2022-08-23T08:58:20.418Z,2.67
2022-08-23T09:00:52.703Z,2.88
2022-08-23T09:03:25.106Z,2.30
2022-08-23T09:06:01.111Z,2.33
2022-08-23T09:08:48.849Z,2.50
2022-08-23T09:11:34.977Z,2.53
2022-08-23T09:14:39.368Z,2.60
2022-08-23T09:17:20.850Z,2.70
2022-08-23T09:19:54.116Z,2.35
2022-08-23T09:22:33.811Z,2.50
2022-08-23T09:25:02.150Z,2.45
2022-08-23T09:27:32.819Z,2.45
2022-08-23T09:30:03.519Z,2.67
2022-08-23T09:32:34.816Z,2.60
2022-08-23T09:35:17.187Z,2.42
2022-08-23T09:37:57.355Z,2.30
2022-08-23T09:40:41.343Z,2.70
2022-08-23T09:43:15.571Z,2.95
2022-08-23T09:45:58.527Z,2.88
2022-08-23T09:48:41.549Z,2.90
2022-08-23T09:51:23.413Z,3.20
2022-08-23T09:54:08.078Z,2.70
2022-08-23T09:56:41.403Z,2.63
2022-08-23T09:59:40.165Z,2.88
2022-08-23T10:02:25.087Z,2.80
2022-08-23T10:05:03.179Z,3.03
2022-08-23T10:07:42.473Z,3.17
2022-08-23T10:10:29.283Z,2.85
2022-08-23T10:12:59.057Z,3.17
2022-08-23T10:15:52.086Z,3.20
2022-08-23T10:18:39.050Z,2.90
2022-08-23T10:21:21.083Z,3.00
2022-08-23T10:24:16.623Z,2.78
2022-08-23T10:27:03.443Z,2.92
2022-08-23T10:29:42.703Z,2.90
2022-08-23T10:32:27.066Z,3.20
2022-08-23T10:35:14.927Z,3.10
2022-08-23T10:37:54.428Z,3.22
2022-08-23T10:40:33.719Z,3.50
2022-08-23T10:43:15.956Z,3.15
2022-08-23T10:45:47.743Z,2.95
2022-08-23T10:48:28.144Z,2.60
2022-08-23T10:51:03.716Z,3.03
2022-08-23T10:53:46.034Z,2.85
2022-08-23T10:56:19.042Z,3.08
2022-08-23T10:58:52.899Z,2.83
2022-08-23T11:01:26.230Z,3.03
2022-08-23T11:04:04.707Z,3.05
2022-08-23T11:06:52.585Z,3.05
2022-08-23T11:10:16.336Z,2.88
2022-08-23T11:12:56.623Z,3.30
2022-08-23T11:15:44.576Z,2.95
2022-08-23T11:18:42.366Z,2.90
2022-08-23T11:21:45.482Z,2.80
2022-08-23T11:24:55.486Z,3.20
2022-08-23T11:27:33.782Z,3.15
2022-08-23T11:30:49.884Z,2.92
2022-08-23T11:33:24.191Z,2.75
2022-08-23T11:35:56.346Z,2.50
2022-08-23T11:39:05.778Z,3.50
2022-08-23T11:42:03.504Z,3.05
2022-08-23T11:44:42.002Z,3.30
2022-08-23T11:47:12.892Z,2.88
2022-08-23T11:50:26.037Z,3.10
2022-08-23T11:53:36.308Z,2.75
2022-08-23T11:56:46.208Z,6.07
2022-08-23T11:59:41.878Z,2.70
2022-08-23T12:02:42.349Z,2.95
2022-08-23T12:05:32.357Z,2.83
2022-08-23T12:08:55.323Z,2.97
2022-08-23T12:11:26.396Z,2.72
2022-08-23T12:14:01.433Z,2.55
2022-08-23T12:16:37.398Z,2.47
2022-08-23T12:19:13.684Z,2.90
2022-08-23T12:21:48.251Z,2.42
2022-08-23T12:24:25.957Z,2.80
2022-08-23T12:27:15.387Z,3.15
2022-08-23T12:29:59.670Z,2.80
2022-08-23T12:32:41.367Z,3.10
2022-08-23T12:35:32.916Z,3.45
2022-08-23T12:38:10.978Z,2.90
2022-08-23T12:40:43.941Z,2.92
2022-08-23T12:43:22.793Z,2.70
2022-08-23T12:45:56.472Z,2.83
2022-08-23T12:48:28.947Z,2.53
2022-08-23T12:51:01.243Z,2.70
2022-08-23T12:53:32.559Z,2.88
2022-08-23T12:56:06.437Z,2.60
2022-08-23T12:58:39.921Z,2.22
2022-08-23T13:01:22.226Z,2.47
2022-08-23T13:04:07.059Z,2.30
2022-08-23T13:06:42.943Z,2.80
2022-08-23T13:09:20.865Z,2.28
2022-08-23T13:11:49.773Z,2.35
2022-08-23T13:14:26.965Z,2.25
2022-08-23T13:17:18.332Z,2.30
2022-08-23T13:19:49.090Z,2.20
2022-08-23T13:22:25.031Z,2.47
2022-08-23T13:25:27.599Z,2.15
2022-08-23T13:27:57.063Z,2.10
2022-08-23T13:30:29.653Z,2.33
2022-08-23T13:33:23.221Z,1.90
2022-08-23T13:36:13.400Z,2.50
2022-08-23T13:38:43.205Z,2.42
2022-08-23T13:41:27.552Z,2.38
2022-08-23T13:43:56.104Z,2.20
2022-08-23T13:46:27.591Z,2.38
2022-08-23T13:49:05.487Z,2.20
2022-08-23T13:51:38.777Z,2.20
2022-08-23T13:54:11.807Z,2.35
2022-08-23T13:56:48.886Z,2.75
2022-08-23T13:59:26.812Z,2.45
2022-08-23T14:02:02.403Z,2.55
2022-08-23T14:04:32.493Z,2.38
2022-08-23T14:07:00.739Z,2.63
2022-08-23T14:09:28.901Z,2.20
2022-08-23T14:12:02.860Z,2.53
2022-08-23T14:14:35.761Z,2.40
2022-08-23T14:17:04.674Z,2.67
2022-08-23T14:22:22.784Z,2.53
2022-08-23T14:24:50.771Z,2.50
2022-08-23T14:27:19.209Z,2.30
2022-08-23T14:29:47.544Z,2.35
2022-08-23T14:32:15.684Z,2.30
2022-08-23T14:34:45.400Z,2.70
2022-08-23T14:38:00.555Z,2.42
2022-08-23T14:40:01.706Z,2.58
2022-08-23T14:42:29.916Z,2.40
2022-08-23T14:44:58.064Z,2.10
2022-08-23T14:47:26.761Z,2.80
2022-08-23T14:49:56.382Z,2.50
2022-08-23T14:52:24.838Z,2.13
2022-08-23T14:54:53.024Z,2.50
2022-08-23T14:57:21.242Z,2.35
2022-08-23T14:59:50.033Z,2.20
2022-08-23T15:02:24.421Z,2.10
2022-08-23T15:04:53.449Z,2.17
2022-08-23T15:07:50.265Z,2.60
2022-08-23T15:13:26.159Z,2.10
2022-08-23T15:16:07.235Z,2.28
2022-08-23T15:18:36.738Z,2.50
2022-08-23T15:21:05.556Z,2.25
2022-08-23T15:23:35.025Z,2.70
2022-08-23T15:26:03.239Z,2.17
2022-08-23T15:28:32.181Z,1.90
2022-08-23T15:31:00.444Z,2.10
2022-08-23T15:33:31.479Z,2.10
2022-08-23T15:36:01.840Z,2.15
2022-08-23T15:38:32.518Z,1.90
2022-08-23T15:41:02.473Z,1.85
2022-08-23T15:43:34.180Z,2.10
2022-08-23T15:46:08.420Z,1.98
2022-08-23T15:48:43.671Z,2.30
2022-08-23T15:51:13.422Z,2.33
2022-08-23T15:53:41.914Z,1.90
2022-08-23T15:56:18.130Z,2.17
2022-08-23T15:58:47.016Z,2.00
2022-08-23T16:01:20.705Z,2.00
2022-08-23T16:03:50.800Z,2.30
2022-08-23T16:06:19.080Z,2.10
2022-08-23T16:08:52.177Z,1.95
2022-08-23T16:11:22.843Z,2.15
2022-08-23T16:13:53.775Z,2.20
2022-08-23T16:16:26.443Z,2.30
2022-08-23T16:18:55.629Z,2.10
2022-08-23T16:21:25.183Z,2.20
2022-08-23T16:23:53.220Z,2.13
2022-08-23T16:26:34.928Z,2.40
2022-08-23T16:29:06.823Z,2.13
2022-08-23T16:31:38.874Z,2.15
2022-08-23T16:34:10.322Z,2.05
2022-08-23T16:36:39.650Z,2.35
2022-08-23T16:39:08.780Z,2.00
2022-08-23T16:41:38.439Z,2.30
2022-08-23T16:44:07.741Z,2.28
2022-08-23T16:46:41.088Z,2.30
2022-08-23T16:49:09.431Z,2.47
2022-08-23T16:51:37.690Z,2.80
2022-08-23T16:54:08.213Z,2.40
2022-08-23T16:56:40.012Z,2.05
2022-08-23T16:59:12.670Z,2.20
2022-08-23T17:01:48.273Z,2.38
2022-08-23T17:04:17.183Z,2.47
2022-08-23T17:06:46.192Z,2.40
2022-08-23T17:09:15.397Z,2.75
2022-08-23T17:11:48.918Z,2.25
2022-08-23T17:14:17.701Z,2.50
2022-08-23T17:16:46.596Z,2.08
2022-08-23T17:19:15.647Z,2.50
2022-08-23T17:21:45.058Z,2.90
2022-08-23T17:24:13.218Z,2.30
2022-08-23T17:26:41.550Z,2.40
2022-08-23T17:29:12.225Z,2.60
2022-08-23T17:31:40.481Z,2.30
2022-08-23T17:34:09.037Z,2.60
2022-08-23T17:36:48.071Z,2.47
2022-08-23T17:39:19.691Z,2.80
2022-08-23T17:41:48.061Z,2.45
2022-08-23T17:44:18.227Z,2.38
2022-08-23T17:46:47.735Z,2.03
2022-08-23T17:49:20.066Z,2.70
2022-08-23T17:51:49.262Z,2.58
2022-08-23T17:54:18.462Z,2.28
2022-08-23T17:56:50.613Z,2.30
2022-08-23T17:59:21.366Z,2.50
2022-08-23T18:01:49.820Z,2.38
2022-08-23T18:04:19.442Z,2.35
2022-08-23T18:06:47.737Z,2.63
2022-08-23T18:09:17.386Z,2.33
2022-08-23T18:11:45.723Z,2.70
2022-08-23T18:14:13.879Z,2.30
2022-08-23T18:16:44.133Z,2.72
2022-08-23T18:19:14.454Z,2.30
2022-08-23T18:21:49.171Z,2.53
2022-08-23T18:24:18.473Z,2.58
2022-08-23T18:27:04.699Z,2.63
2022-08-23T18:29:36.309Z,2.67
2022-08-23T18:32:08.133Z,2.50
2022-08-23T18:34:39.356Z,2.60
2022-08-23T18:37:08.473Z,3.05
2022-08-23T18:39:36.638Z,3.00
2022-08-23T18:42:09.064Z,2.63
2022-08-23T18:44:37.441Z,2.75
2022-08-23T18:47:08.268Z,2.60
2022-08-23T18:49:38.651Z,2.50
2022-08-23T18:52:07.548Z,2.55
2022-08-23T18:54:37.676Z,2.60
2022-08-23T18:57:06.909Z,2.70
2022-08-23T18:59:34.925Z,2.47
2022-08-23T19:02:03.128Z,2.80
2022-08-23T19:04:32.621Z,3.00
2022-08-23T19:07:00.639Z,2.60
2022-08-23T19:09:28.803Z,2.88
2022-08-23T19:11:56.921Z,2.42
2022-08-23T19:14:25.034Z,2.72
2022-08-23T19:16:53.240Z,2.50
2022-08-23T19:19:21.664Z,2.60
2022-08-23T19:21:51.217Z,2.90
2022-08-23T19:24:19.303Z,2.35
2022-08-23T19:26:48.880Z,2.30
2022-08-23T19:29:18.536Z,2.55
2022-08-23T19:31:48.021Z,2.55
2022-08-23T19:34:17.434Z,2.55
2022-08-23T19:36:50.340Z,2.40
2022-08-23T19:39:26.071Z,2.65
2022-08-23T19:41:54.244Z,2.25
2022-08-23T19:44:22.625Z,2.67
2022-08-23T19:46:51.517Z,2.40
2022-08-23T19:49:19.659Z,2.60
2022-08-23T19:51:47.839Z,2.72
2022-08-23T19:54:16.356Z,2.30
2022-08-23T19:56:50.068Z,2.78
2022-08-23T19:59:23.126Z,2.63
2022-08-23T20:01:52.824Z,2.53
2022-08-23T20:04:23.207Z,2.45
2022-08-23T20:06:51.498Z,2.50
2022-08-23T20:09:22.339Z,2.80
2022-08-23T20:11:53.698Z,2.75
2022-08-23T20:14:22.713Z,2.67
2022-08-23T20:16:52.062Z,2.88
2022-08-23T20:19:20.530Z,2.85
2022-08-23T20:21:48.670Z,2.17
2022-08-23T20:24:16.799Z,3.00
2022-08-23T20:26:47.859Z,2.53
2022-08-23T20:29:21.987Z,2.75
2022-08-23T20:31:54.504Z,2.53
2022-08-23T20:34:23.535Z,2.58
2022-08-23T20:36:56.581Z,2.65
2022-08-23T20:39:25.600Z,2.60
2022-08-23T20:41:54.948Z,2.67
2022-08-23T20:44:27.282Z,2.53
2022-08-23T20:46:58.701Z,3.15
2022-08-23T20:49:30.334Z,2.65
2022-08-23T20:51:58.365Z,2.63
2022-08-23T20:54:26.597Z,2.63
2022-08-23T20:56:54.648Z,2.80
2022-08-23T20:59:23.020Z,2.85
2022-08-23T21:01:52.434Z,2.63
2022-08-23T21:04:21.861Z,2.80
2022-08-23T21:06:58.575Z,2.90
2022-08-23T21:09:29.506Z,2.92
2022-08-23T21:11:58.445Z,2.72
2022-08-23T21:14:26.491Z,2.70
2022-08-23T21:16:56.395Z,2.80
2022-08-23T21:19:24.433Z,2.88
2022-08-23T21:21:52.470Z,2.83
2022-08-23T21:24:20.546Z,3.05
2022-08-23T21:26:48.673Z,3.08
2022-08-23T21:29:16.909Z,2.88
2022-08-23T21:31:45.095Z,2.58
2022-08-23T21:34:18.519Z,2.60
2022-08-23T21:36:46.653Z,2.90
2022-08-23T21:39:14.746Z,2.92
2022-08-23T21:41:46.030Z,2.95
2022-08-23T21:44:17.350Z,2.95
2022-08-23T21:46:46.649Z,3.25
2022-08-23T21:49:17.624Z,2.85
2022-08-23T21:51:46.767Z,2.85
2022-08-23T21:54:15.616Z,2.92
2022-08-23T21:56:44.277Z,2.97
2022-08-23T21:59:17.211Z,3.05
2022-08-23T22:01:46.363Z,2.97
2022-08-23T22:04:17.646Z,2.90
2022-08-23T22:06:48.011Z,3.55
2022-08-23T22:09:25.761Z,2.80
2022-08-23T22:12:00.566Z,3.17
2022-08-23T22:14:31.688Z,3.33
2022-08-23T22:17:00.783Z,2.83
2022-08-23T22:19:30.487Z,2.88
2022-08-23T22:21:58.738Z,3.40
2022-08-23T22:24:27.077Z,3.50
2022-08-23T22:26:56.307Z,3.30
2022-08-23T22:29:25.381Z,3.65
2022-08-23T22:31:53.392Z,3.97
2022-08-23T22:34:21.712Z,3.75
2022-08-23T22:36:52.260Z,3.67
2022-08-23T22:39:21.638Z,4.10
2022-08-23T22:41:50.751Z,4.22
2022-08-23T22:44:19.417Z,4.20
2022-08-23T22:46:47.627Z,4.50
2022-08-23T22:49:16.006Z,4.70
2022-08-23T22:51:44.433Z,4.07
2022-08-23T22:54:14.857Z,4.00
2022-08-23T22:56:46.585Z,4.60
2022-08-23T22:59:16.958Z,4.25
2022-08-23T23:01:51.909Z,4.38
2022-08-23T23:04:25.090Z,3.72
2022-08-23T23:06:55.412Z,3.67
2022-08-23T23:09:26.186Z,3.58
2022-08-23T23:11:55.417Z,3.72
2022-08-23T23:14:24.604Z,3.65
2022-08-23T23:16:54.011Z,3.97
2022-08-23T23:19:41.182Z,4.15
2022-08-23T23:22:10.982Z,4.00
2022-08-23T23:24:42.013Z,3.80
2022-08-23T23:27:10.551Z,3.78
2022-08-23T23:29:38.918Z,3.90
2022-08-23T23:32:07.471Z,4.05
2022-08-23T23:34:37.766Z,4.65
2022-08-23T23:37:06.317Z,4.38
2022-08-23T23:39:34.506Z,5.05
2022-08-23T23:42:03.960Z,4.57
2022-08-23T23:44:32.205Z,4.97
2022-08-23T23:47:02.054Z,5.22
2022-08-23T23:49:32.851Z,4.97
2022-08-23T23:52:03.671Z,4.35
2022-08-23T23:54:33.822Z,4.20
2022-08-23T23:57:03.574Z,4.18
2022-08-23T23:59:31.730Z,4.45
